Time;durP1;ratioP1;P1;durP2;ratioP2;P2;SDS_P1;SDS_P2;PMS_P1;PMS_P2;Temp;Humidity;BMP_temperature;BMP_pressure;BME280_temperature;BME280_humidity;BME280_pressure;Samples;Min_cycle;Max_cycle;Signal;HPM_P1;HPM_P2
2022/09/24 00:00:26;;;;;;;;;;;;;;;5.82;100.00;100417.03;3057268;19;20262;-53
2022/09/24 00:01:32;;;;;;;;;;;;;;;5.81;100.00;100420.59;3056007;19;19918;-52
2022/09/24 00:02:34;;;;;;;;;;;;;;;5.81;100.00;100425.91;3056135;19;19915;-52
2022/09/24 00:03:38;;;;;;;;;;;;;;;5.75;100.00;100420.88;3056168;19;19923;-53
2022/09/24 00:04:40;;;;;;;;;;;;;;;5.72;100.00;100423.66;3057106;19;19930;-53
2022/09/24 00:05:45;;;;;;;;;;;;;;;5.68;100.00;100430.00;3056947;19;19934;-51
2022/09/24 00:06:47;;;;;;;;;;;;;;;5.66;100.00;100426.59;3057331;19;19911;-52
2022/09/24 00:07:51;;;;;;;;;;;;;;;5.64;100.00;100423.13;3056577;19;19926;-51
2022/09/24 00:08:54;;;;;;;;;;;;;;;5.62;100.00;100425.84;3057439;19;19991;-52
2022/09/24 00:09:59;;;;;;;;;;;;;;;5.59;100.00;100420.66;3055886;19;19931;-53
2022/09/24 00:11:01;;;;;;;;;;;;;;;5.57;100.00;100422.50;3057370;19;19923;-52
2022/09/24 00:12:06;;;;;;;;;;;;;;;5.57;100.00;100422.50;3056693;19;19926;-53
2022/09/24 00:13:10;;;;;;;;;;;;;;;5.56;100.00;100426.09;3057144;19;19951;-53
2022/09/24 00:14:15;;;;;;;;;;;;;;;5.56;100.00;100422.56;3056670;19;19919;-52
2022/09/24 00:15:17;;;;;;;;;;;;;;;5.56;100.00;100420.78;3057027;19;19947;-52
2022/09/24 00:16:24;;;;;;;;;;;;;;;5.55;100.00;100415.59;3056099;19;20495;-53
2022/09/24 00:17:26;;;;;;;;;;;;;;;5.55;100.00;100419.09;3056295;19;19930;-52
2022/09/24 00:18:31;;;;;;;;;;;;;;;5.54;100.00;100421.81;3055923;19;20027;-53
2022/09/24 00:19:32;;;;;;;;;;;;;;;5.55;100.00;100418.22;3056263;19;20468;-54
2022/09/24 00:20:37;;;;;;;;;;;;;;;5.55;100.00;100413.81;3055896;19;19923;-53
2022/09/24 00:21:39;;;;;;;;;;;;;;;5.58;100.00;100412.78;3056990;19;19922;-53
2022/09/24 00:22:44;;;;;;;;;;;;;;;5.60;100.00;100410.94;3057014;19;20354;-54
2022/09/24 00:23:49;;;;;;;;;;;;;;;5.61;100.00;100412.66;3056642;19;19967;-53
2022/09/24 00:27:31;;;;;;;;;;;;;;;5.61;100.00;100407.38;3053832;19;19940;-52
2022/09/24 00:28:33;;;;;;;;;;;;;;;5.64;100.00;100407.25;3057135;19;19983;-53
2022/09/24 00:29:37;;;;;;;;;;;;;;;5.64;100.00;100402.81;3058118;19;20349;-54
2022/09/24 00:30:40;;;;;;;;;;;;;;;5.65;100.00;100404.53;3055911;19;19923;-53
2022/09/24 00:31:44;;;;;;;;;;;;;;;5.67;100.00;100407.13;3055655;19;19926;-52
2022/09/24 00:32:46;;;;;;;;;;;;;;;5.68;100.00;100406.16;3056531;19;19926;-52
2022/09/24 00:33:51;;;;;;;;;;;;;;;5.68;100.00;100403.53;3056591;19;19929;-53
2022/09/24 00:34:53;;;;;;;;;;;;;;;5.67;100.00;100404.47;3056667;19;19923;-52
2022/09/24 00:36:03;;;;;;;;;;;;;;;5.68;100.00;100398.22;3056487;19;19914;-53
2022/09/24 00:37:05;;;;;;;;;;;;;;;5.66;100.00;100395.69;3056556;19;19986;-52
2022/09/24 00:38:10;;;;;;;;;;;;;;;5.67;100.00;100399.19;3056497;19;19923;-53
2022/09/24 00:39:14;;;;;;;;;;;;;;;5.66;100.00;100394.81;3056400;19;19923;-52
2022/09/24 00:40:17;;;;;;;;;;;;;;;5.67;100.00;100393.91;3056718;19;19940;-52
2022/09/24 00:41:22;;;;;;;;;;;;;;;5.66;100.00;100394.81;3056428;19;19927;-51
2022/09/24 00:42:24;;;;;;;;;;;;;;;5.63;100.00;100395.81;3056609;19;19930;-53
2022/09/24 00:43:36;;;;;;;;;;;;;;;5.64;100.00;100394.00;3056339;19;20235;-53
2022/09/24 00:44:44;;;;;;;;;;;;;;;5.68;100.00;100400.88;3056669;19;19919;-53
2022/09/24 00:45:49;;;;;;;;;;;;;;;5.70;100.00;100396.38;3056817;19;20006;-51
2022/09/24 00:46:51;;;;;;;;;;;;;;;5.69;100.00;100389.38;3055664;19;19930;-54
2022/09/24 00:47:55;;;;;;;;;;;;;;;5.68;100.00;100404.38;3055293;19;20331;-53
2022/09/24 00:48:59;;;;;;;;;;;;;;;5.67;100.00;100400.06;3056632;19;19922;-51
2022/09/24 00:50:22;;;;;;;;;;;;;;;5.67;100.00;100404.47;3055967;19;20457;-52
2022/09/24 00:51:24;;;;;;;;;;;;;;;5.68;100.00;100408.81;3056568;19;19922;-53
2022/09/24 00:52:28;;;;;;;;;;;;;;;5.67;100.00;100401.84;3055929;19;19935;-52
2022/09/24 00:53:32;;;;;;;;;;;;;;;5.67;100.00;100401.84;3055685;19;19929;-51
2022/09/24 00:54:36;;;;;;;;;;;;;;;5.69;100.00;100399.94;3056344;19;19974;-54
2022/09/24 00:55:39;;;;;;;;;;;;;;;5.69;100.00;100402.59;3056412;19;19927;-53
2022/09/24 00:56:43;;;;;;;;;;;;;;;5.65;100.00;100401.03;3056056;19;19919;-52
2022/09/24 00:57:45;;;;;;;;;;;;;;;5.59;100.00;100398.63;3056326;19;20306;-53
2022/09/24 00:58:51;;;;;;;;;;;;;;;5.57;100.00;100397.81;3056003;19;20391;-53
2022/09/24 00:59:54;;;;;;;;;;;;;;;5.55;100.00;100392.63;3056319;19;19918;-53
2022/09/24 01:01:00;;;;;;;;;;;;;;;5.56;100.00;100396.09;3055651;19;19923;-53
2022/09/24 01:02:03;;;;;;;;;;;;;;;5.56;100.00;100393.47;3055575;19;20401;-52
2022/09/24 01:03:19;;;;;;;;;;;;;;;5.54;100.00;100390.91;3056778;19;19918;-51
2022/09/24 01:04:20;;;;;;;;;;;;;;;5.54;100.00;100395.34;3055403;19;19964;-53
2022/09/24 01:05:25;;;;;;;;;;;;;;;5.51;100.00;100401.63;3055622;19;19930;-52
2022/09/24 01:06:27;;;;;;;;;;;;;;;5.51;100.00;100393.69;3055361;19;19929;-52
2022/09/24 01:07:31;;;;;;;;;;;;;;;5.49;100.00;100386.72;3055265;19;20514;-53
2022/09/24 01:08:36;;;;;;;;;;;;;;;5.49;100.00;100386.72;3055595;19;19914;-53
2022/09/24 01:09:38;;;;;;;;;;;;;;;5.47;100.00;100389.44;3056116;19;19936;-52
2022/09/24 01:10:51;;;;;;;;;;;;;;;5.47;100.00;100393.84;3055274;19;19930;-53
2022/09/24 01:12:00;;;;;;;;;;;;;;;5.47;100.00;100393.84;3056462;19;20283;-53
2022/09/24 01:13:11;;;;;;;;;;;;;;;5.47;100.00;100399.16;3055636;19;19983;-52
2022/09/24 01:14:13;;;;;;;;;;;;;;;5.44;100.00;100387.75;3055395;19;19923;-54
2022/09/24 01:15:17;;;;;;;;;;;;;;;5.42;100.00;100392.28;3055508;19;20354;-53
2022/09/24 01:16:34;;;;;;;;;;;;;;;5.41;100.00;100387.91;3055159;19;19934;-52
2022/09/24 01:17:41;;;;;;;;;;;;;;;5.40;100.00;100387.97;3056182;19;19931;-53
2022/09/24 01:18:44;;;;;;;;;;;;;;;5.38;100.00;100385.38;3055295;19;20554;-52
2022/09/24 01:20:07;;;;;;;;;;;;;;;5.38;100.00;100381.88;3055427;19;19943;-52
2022/09/24 01:21:30;;;;;;;;;;;;;;;5.36;100.00;100379.28;3055911;19;19926;-53
2022/09/24 01:22:35;;;;;;;;;;;;;;;5.34;100.00;100383.78;3056095;19;19919;-52
2022/09/24 01:23:42;;;;;;;;;;;;;;;5.33;100.00;100382.06;3056146;19;19935;-52
2022/09/24 01:25:09;;;;;;;;;;;;;;;5.34;100.00;100382.94;3056002;19;19919;-53
2022/09/24 01:26:29;;;;;;;;;;;;;;;5.33;100.00;100379.41;3056179;19;19927;-52
2022/09/24 01:27:34;;;;;;;;;;;;;;;5.32;100.00;100379.47;3056387;19;19923;-52
2022/09/24 01:28:36;;;;;;;;;;;;;;;5.31;100.00;100378.63;3055861;19;19974;-53
2022/09/24 01:29:46;;;;;;;;;;;;;;;5.31;100.00;100378.63;3056207;19;19979;-53
2022/09/24 01:30:49;;;;;;;;;;;;;;;5.30;100.00;100376.91;3055185;19;21017;-51
2022/09/24 01:31:55;;;;;;;;;;;;;;;5.29;100.00;100374.34;3054120;19;19938;-53
2022/09/24 01:33:02;;;;;;;;;;;;;;;5.28;100.00;100375.25;3055038;19;19930;-54
2022/09/24 01:34:04;;;;;;;;;;;;;;;5.26;100.00;100380.59;3055397;19;19939;-53
2022/09/24 01:35:23;;;;;;;;;;;;;;;5.25;100.00;100373.59;3054895;19;19927;-53
2022/09/24 01:36:25;;;;;;;;;;;;;;;5.25;100.00;100383.31;3055299;19;19922;-51
2022/09/24 01:37:30;;;;;;;;;;;;;;;5.23;100.00;100375.44;3054883;19;20389;-52
2022/09/24 01:38:33;;;;;;;;;;;;;;;5.22;100.00;100379.00;3055393;19;19919;-52
2022/09/24 01:39:38;;;;;;;;;;;;;;;5.22;100.00;100386.94;3056248;19;19915;-53
2022/09/24 01:40:40;;;;;;;;;;;;;;;5.21;100.00;100377.28;3058297;19;20051;-53
2022/09/24 01:41:46;;;;;;;;;;;;;;;5.19;100.00;100373.88;3057893;19;20228;-52
2022/09/24 01:42:47;;;;;;;;;;;;;;;5.18;100.00;100366.84;3058475;19;19918;-53
2022/09/24 01:43:52;;;;;;;;;;;;;;;5.18;100.00;100374.78;3057932;19;20287;-52
2022/09/24 01:44:54;;;;;;;;;;;;;;;5.19;100.00;100378.28;3059304;19;19915;-52
2022/09/24 01:45:59;;;;;;;;;;;;;;;5.18;100.00;100364.22;3058075;19;19939;-51
2022/09/24 01:47:00;;;;;;;;;;;;;;;5.18;100.00;100372.13;3058256;19;19915;-52
2022/09/24 01:48:05;;;;;;;;;;;;;;;5.18;100.00;100377.44;3058026;19;19947;-53
2022/09/24 01:49:07;;;;;;;;;;;;;;;5.17;100.00;100361.63;3058369;19;19926;-51
2022/09/24 01:50:12;;;;;;;;;;;;;;;5.17;100.00;100365.13;3057733;19;20055;-52
2022/09/24 01:51:15;;;;;;;;;;;;;;;5.17;100.00;100365.13;3057190;19;19907;-51
2022/09/24 01:52:21;;;;;;;;;;;;;;;5.18;100.00;100366.00;3059087;19;20033;-51
2022/09/24 01:53:29;;;;;;;;;;;;;;;5.18;100.00;100361.56;3057911;19;20002;-52
2022/09/24 01:54:36;;;;;;;;;;;;;;;5.19;100.00;100368.56;3058083;19;19914;-52
2022/09/24 01:55:43;;;;;;;;;;;;;;;5.18;100.00;100372.13;3058000;19;19926;-52
2022/09/24 01:56:52;;;;;;;;;;;;;;;5.19;100.00;100363.28;3058166;19;19985;-52
2022/09/24 01:58:05;;;;;;;;;;;;;;;5.19;100.00;100368.56;3057893;19;19926;-53
2022/09/24 01:59:27;;;;;;;;;;;;;;;5.18;100.00;100361.56;3058190;19;19946;-53
2022/09/24 02:00:28;;;;;;;;;;;;;;;5.18;100.00;100366.00;3057743;19;20285;-53
2022/09/24 02:01:35;;;;;;;;;;;;;;;5.17;100.00;100370.41;3058044;19;19926;-51
2022/09/24 02:02:54;;;;;;;;;;;;;;;5.15;100.00;100366.09;3057958;19;20149;-53
2022/09/24 02:03:57;;;;;;;;;;;;;;;5.14;100.00;100364.38;3057962;19;20269;-53
2022/09/24 02:05:08;;;;;;;;;;;;;;;5.13;100.00;100368.81;3057847;19;19918;-53
2022/09/24 02:06:12;;;;;;;;;;;;;;;5.10;100.00;100363.63;3057855;19;19919;-51
2022/09/24 02:07:18;;;;;;;;;;;;;;;5.09;100.00;100367.19;3056853;19;19927;-52
2022/09/24 02:08:21;;;;;;;;;;;;;;;5.10;100.00;100368.94;3057359;19;20403;-51
2022/09/24 02:09:42;;;;;;;;;;;;;;;5.08;100.00;100365.47;3057498;19;20561;-52
2022/09/24 02:10:48;;;;;;;;;;;;;;;5.05;100.00;100366.50;3058282;19;19943;-51
2022/09/24 02:11:50;;;;;;;;;;;;;;;5.04;100.00;100367.41;3057991;19;19990;-51
2022/09/24 02:12:57;;;;;;;;;;;;;;;5.03;100.00;100362.19;3057255;19;19929;-52
2022/09/24 02:14:02;;;;;;;;;;;;;;;5.01;100.00;100364.88;3057731;19;20014;-51
2022/09/24 02:15:09;;;;;;;;;;;;;;;4.99;100.00;100360.56;3057346;19;19942;-53
2022/09/24 02:16:15;;;;;;;;;;;;;;;4.99;100.00;100360.56;3057208;19;19923;-53
2022/09/24 02:17:19;;;;;;;;;;;;;;;4.97;100.00;100368.56;3057518;19;20342;-51
2022/09/24 02:18:23;;;;;;;;;;;;;;;4.95;100.00;100359.00;3057575;19;20238;-52
2022/09/24 02:19:28;;;;;;;;;;;;;;;4.92;100.00;100354.69;3057451;19;19923;-52
2022/09/24 02:20:30;;;;;;;;;;;;;;;4.89;100.00;100364.50;3057787;19;19919;-52
2022/09/24 02:21:34;;;;;;;;;;;;;;;4.88;100.00;100363.66;3057394;19;19934;-52
2022/09/24 02:22:36;;;;;;;;;;;;;;;4.86;100.00;100367.28;3057469;19;19926;-51
2022/09/24 02:23:42;;;;;;;;;;;;;;;4.84;100.00;100366.47;3057306;19;19926;-53
2022/09/24 02:24:46;;;;;;;;;;;;;;;4.80;100.00;100368.41;3057487;19;19927;-51
2022/09/24 02:25:56;;;;;;;;;;;;;;;4.79;100.00;100358.75;3057411;19;19923;-52
2022/09/24 02:26:58;;;;;;;;;;;;;;;4.78;100.00;100367.59;3057388;19;20359;-52
2022/09/24 02:28:03;;;;;;;;;;;;;;;4.78;100.00;100367.59;3057582;19;20313;-52
2022/09/24 02:29:05;;;;;;;;;;;;;;;4.75;100.00;100372.13;3057451;19;19919;-53
2022/09/24 02:30:10;;;;;;;;;;;;;;;4.72;100.00;100370.47;3057622;19;19927;-52
2022/09/24 02:31:27;;;;;;;;;;;;;;;4.69;100.00;100371.47;3057030;19;20555;-52
2022/09/24 02:32:29;;;;;;;;;;;;;;;4.71;100.00;100366.97;3057774;19;20537;-52
2022/09/24 02:34:52;;;;;;;;;;;;;;;4.73;100.00;100369.53;3057403;19;19923;-52
2022/09/24 02:35:53;;;;;;;;;;;;;;;4.71;100.00;100369.59;3057174;19;19918;-52
2022/09/24 02:37:02;;;;;;;;;;;;;;;4.68;100.00;100372.38;3057367;19;19923;-51
2022/09/24 02:38:04;;;;;;;;;;;;;;;4.69;100.00;100375.91;3057005;19;19991;-53
2022/09/24 02:39:09;;;;;;;;;;;;;;;4.72;100.00;100370.47;3057235;19;19930;-52
2022/09/24 02:40:12;;;;;;;;;;;;;;;4.70;100.00;100367.91;3057450;19;19919;-52
2022/09/24 02:41:16;;;;;;;;;;;;;;;4.74;100.00;100365.13;3057223;19;19919;-51
2022/09/24 02:42:18;;;;;;;;;;;;;;;4.64;100.00;100370.78;3057532;19;19947;-51
2022/09/24 02:43:23;;;;;;;;;;;;;;;4.72;100.00;100373.97;3057298;19;19923;-52
2022/09/24 02:44:25;;;;;;;;;;;;;;;4.74;100.00;100367.75;3057575;19;19932;-51
2022/09/24 02:45:31;;;;;;;;;;;;;;;4.71;100.00;100366.97;3056794;19;19922;-55
2022/09/24 02:46:32;;;;;;;;;;;;;;;4.65;100.00;100372.50;3057401;19;20358;-52
2022/09/24 02:47:37;;;;;;;;;;;;;;;4.61;100.00;100370.88;3057919;19;19927;-52
2022/09/24 02:48:39;;;;;;;;;;;;;;;4.59;100.00;100363.94;3058327;19;19938;-51
2022/09/24 02:49:43;;;;;;;;;;;;;;;4.57;100.00;100358.75;3057620;19;19919;-52
2022/09/24 02:50:45;;;;;;;;;;;;;;;4.56;100.00;100359.66;3057613;19;20301;-51
2022/09/24 02:51:50;;;;;;;;;;;;;;;4.57;100.00;100353.44;3057011;19;20321;-52
2022/09/24 02:52:54;;;;;;;;;;;;;;;4.55;100.00;100357.94;3057797;19;19922;-52
2022/09/24 02:53:56;;;;;;;;;;;;;;;4.56;100.00;100357.00;3057980;19;19919;-51
2022/09/24 02:55:01;;;;;;;;;;;;;;;4.55;100.00;100357.94;3057782;19;19919;-51
2022/09/24 02:56:02;;;;;;;;;;;;;;;4.56;100.00;100357.00;3057964;19;19918;-51
2022/09/24 02:57:07;;;;;;;;;;;;;;;4.56;100.00;100357.00;3057967;19;19927;-52
2022/09/24 02:58:09;;;;;;;;;;;;;;;4.56;100.00;100357.00;3057847;19;20339;-53
2022/09/24 02:59:13;;;;;;;;;;;;;;;4.56;100.00;100359.66;3057694;19;20517;-52
2022/09/24 03:00:16;;;;;;;;;;;;;;;4.56;100.00;100349.09;3057743;19;20331;-51
2022/09/24 03:01:21;;;;;;;;;;;;;;;4.56;100.00;100351.72;3057801;19;19923;-51
2022/09/24 03:02:23;;;;;;;;;;;;;;;4.56;100.00;100354.38;3057748;19;19956;-51
2022/09/24 03:03:28;;;;;;;;;;;;;;;4.56;100.00;100350.88;3058059;19;19915;-52
2022/09/24 03:04:30;;;;;;;;;;;;;;;4.56;100.00;100346.44;3057654;19;19922;-51
2022/09/24 03:05:35;;;;;;;;;;;;;;;4.58;100.00;100349.91;3057770;19;19918;-52
2022/09/24 03:06:36;;;;;;;;;;;;;;;4.57;100.00;100342.88;3057535;19;19918;-52
2022/09/24 03:07:42;;;;;;;;;;;;;;;4.57;100.00;100349.94;3058002;19;19923;-51
2022/09/24 03:08:44;;;;;;;;;;;;;;;4.56;100.00;100351.72;3057545;19;19923;-51
2022/09/24 03:09:49;;;;;;;;;;;;;;;4.50;100.00;100335.25;3057833;19;19922;-51
2022/09/24 03:10:51;;;;;;;;;;;;;;;4.55;100.00;100350.00;3057534;19;19939;-52
2022/09/24 03:11:56;;;;;;;;;;;;;;;4.56;100.00;100340.28;3057421;19;19927;-52
2022/09/24 03:12:58;;;;;;;;;;;;;;;4.49;100.00;100334.38;3057717;19;19927;-52
2022/09/24 03:14:02;;;;;;;;;;;;;;;4.55;100.00;100344.72;3057627;19;20032;-51
2022/09/24 03:15:04;;;;;;;;;;;;;;;4.54;100.00;100334.19;3057564;19;20284;-52
2022/09/24 03:16:09;;;;;;;;;;;;;;;4.53;100.00;100336.00;3057014;19;19937;-51
2022/09/24 03:17:14;;;;;;;;;;;;;;;4.54;100.00;100336.84;3057497;19;19927;-53
2022/09/24 03:18:16;;;;;;;;;;;;;;;4.54;100.00;100337.72;3057796;19;19926;-52
2022/09/24 03:19:21;;;;;;;;;;;;;;;4.54;100.00;100340.34;3057413;19;19978;-51
2022/09/24 03:20:23;;;;;;;;;;;;;;;4.53;100.00;100336.00;3057687;19;20030;-51
2022/09/24 03:21:27;;;;;;;;;;;;;;;4.54;100.00;100336.84;3057410;19;19922;-52
2022/09/24 03:22:29;;;;;;;;;;;;;;;4.53;100.00;100341.28;3057724;19;19919;-51
2022/09/24 03:23:34;;;;;;;;;;;;;;;4.51;100.00;100340.47;3057574;19;19926;-52
2022/09/24 03:24:36;;;;;;;;;;;;;;;4.52;100.00;100343.97;3057829;19;19919;-52
2022/09/24 03:25:40;;;;;;;;;;;;;;;4.50;100.00;100341.38;3057218;19;20274;-52
2022/09/24 03:26:44;;;;;;;;;;;;;;;4.49;100.00;100339.66;3057716;19;19934;-51
2022/09/24 03:27:47;;;;;;;;;;;;;;;4.48;100.00;100342.34;3057361;19;19923;-52
2022/09/24 03:28:51;;;;;;;;;;;;;;;4.47;100.00;100341.50;3057357;19;19939;-51
2022/09/24 03:31:11;;;;;;;;;;;;;;;4.40;100.00;100340.03;3057500;19;19923;-52
2022/09/24 03:32:13;;;;;;;;;;;;;;;4.39;100.00;100345.38;3057380;19;20020;-53
2022/09/24 03:33:17;;;;;;;;;;;;;;;4.36;100.00;100341.06;3057413;19;19966;-51
2022/09/24 03:34:20;;;;;;;;;;;;;;;4.35;100.00;100339.31;3057648;19;19947;-52
2022/09/24 03:35:24;;;;;;;;;;;;;;;4.33;100.00;100344.69;3057448;19;19919;-51
2022/09/24 03:36:28;;;;;;;;;;;;;;;4.30;100.00;100343.94;3057031;19;20328;-51
2022/09/24 03:37:32;;;;;;;;;;;;;;;4.29;100.00;100342.22;3057595;19;19958;-52
2022/09/24 03:38:36;;;;;;;;;;;;;;;4.27;100.00;100338.78;3057340;19;20310;-51
2022/09/24 03:39:38;;;;;;;;;;;;;;;4.26;100.00;100342.31;3056456;19;19926;-52
2022/09/24 03:40:43;;;;;;;;;;;;;;;4.22;100.00;100346.88;3057426;19;19955;-51
2022/09/24 03:41:45;;;;;;;;;;;;;;;4.21;100.00;100350.44;3057033;19;19929;-52
2022/09/24 03:42:49;;;;;;;;;;;;;;;4.20;100.00;100346.09;3057331;19;19927;-52
2022/09/24 03:43:51;;;;;;;;;;;;;;;4.19;100.00;100351.41;3057192;19;19922;-51
2022/09/24 03:44:56;;;;;;;;;;;;;;;4.19;100.00;100347.00;3056407;19;19943;-52
2022/09/24 03:45:58;;;;;;;;;;;;;;;4.18;100.00;100355.84;3056490;19;20346;-53
2022/09/24 03:47:02;;;;;;;;;;;;;;;4.17;100.00;100351.47;3057284;19;19915;-51
2022/09/24 03:48:05;;;;;;;;;;;;;;;4.18;100.00;100349.69;3057120;19;19914;-52
2022/09/24 03:49:09;;;;;;;;;;;;;;;4.16;100.00;100349.75;3058190;19;20550;-53
2022/09/24 03:50:11;;;;;;;;;;;;;;;4.16;100.00;100351.53;3057026;19;19930;-52
2022/09/24 03:51:20;;;;;;;;;;;;;;;4.16;100.00;100354.16;3057237;19;19919;-53
2022/09/24 03:52:22;;;;;;;;;;;;;;;4.14;100.00;100348.06;3056684;19;19939;-52
2022/09/24 03:53:27;;;;;;;;;;;;;;;4.14;100.00;100354.22;3057077;19;19958;-52
2022/09/24 03:54:29;;;;;;;;;;;;;;;4.15;100.00;100355.06;3057357;19;19915;-53
2022/09/24 03:55:33;;;;;;;;;;;;;;;4.13;100.00;100356.91;3057401;19;19943;-52
2022/09/24 03:56:35;;;;;;;;;;;;;;;4.14;100.00;100353.34;3057288;19;19926;-50
2022/09/24 03:57:39;;;;;;;;;;;;;;;4.14;100.00;100353.34;3057261;19;19946;-51
2022/09/24 03:58:46;;;;;;;;;;;;;;;4.13;100.00;100354.28;3057061;19;19930;-52
2022/09/24 03:59:51;;;;;;;;;;;;;;;4.12;100.00;100355.19;3057086;19;19915;-52
2022/09/24 04:00:53;;;;;;;;;;;;;;;4.11;100.00;100349.03;3057130;19;20019;-50
2022/09/24 04:01:58;;;;;;;;;;;;;;;4.11;100.00;100348.19;3056269;19;19931;-51
2022/09/24 04:03:00;;;;;;;;;;;;;;;4.11;100.00;100348.19;3056604;19;19926;-54
2022/09/24 04:04:05;;;;;;;;;;;;;;;4.11;100.00;100350.81;3056981;19;19933;-53
2022/09/24 04:05:07;;;;;;;;;;;;;;;4.11;100.00;100348.19;3056810;19;19943;-53
2022/09/24 04:06:11;;;;;;;;;;;;;;;4.12;100.00;100347.25;3056941;19;19919;-51
2022/09/24 04:07:13;;;;;;;;;;;;;;;4.13;100.00;100346.34;3057145;19;19918;-51
2022/09/24 04:08:18;;;;;;;;;;;;;;;4.14;100.00;100353.34;3054859;19;20460;-52
2022/09/24 04:09:20;;;;;;;;;;;;;;;4.13;100.00;100344.56;3056559;19;19938;-52
2022/09/24 04:10:24;;;;;;;;;;;;;;;4.15;100.00;100345.38;3056664;19;19922;-51
2022/09/24 04:11:26;;;;;;;;;;;;;;;4.16;100.00;100346.25;3056690;19;20628;-51
2022/09/24 04:12:31;;;;;;;;;;;;;;;4.18;100.00;100347.03;3056825;19;19927;-51
2022/09/24 04:13:33;;;;;;;;;;;;;;;4.19;100.00;100349.63;3056641;19;20283;-51
2022/09/24 04:14:38;;;;;;;;;;;;;;;4.22;100.00;100351.31;3056711;19;19922;-52
2022/09/24 04:15:40;;;;;;;;;;;;;;;4.23;100.00;100347.72;3056762;19;19915;-50
2022/09/24 04:16:44;;;;;;;;;;;;;;;4.24;100.00;100352.94;3054680;19;19933;-52
2022/09/24 04:17:50;;;;;;;;;;;;;;;4.26;100.00;100347.59;3055632;19;19915;-51
2022/09/24 04:18:54;;;;;;;;;;;;;;;4.27;100.00;100347.56;3056843;19;20330;-51
2022/09/24 04:19:57;;;;;;;;;;;;;;;4.29;100.00;100347.50;3056378;19;19943;-51
2022/09/24 04:21:01;;;;;;;;;;;;;;;4.31;100.00;100350.94;3056559;19;19923;-51
2022/09/24 04:22:03;;;;;;;;;;;;;;;4.33;100.00;100341.19;3056696;19;19923;-52
2022/09/24 04:23:08;;;;;;;;;;;;;;;4.35;100.00;100342.81;3056898;19;19915;-51
2022/09/24 04:24:10;;;;;;;;;;;;;;;4.38;100.00;100341.84;3056536;19;19926;-50
2022/09/24 04:25:14;;;;;;;;;;;;;;;4.39;100.00;100346.22;3057021;19;19919;-52
2022/09/24 04:26:16;;;;;;;;;;;;;;;4.42;100.00;100346.13;3056294;19;19922;-52
2022/09/24 04:27:21;;;;;;;;;;;;;;;4.43;100.00;100345.19;3056413;19;20013;-51
2022/09/24 04:28:24;;;;;;;;;;;;;;;4.46;100.00;100347.72;3056673;19;20638;-51
2022/09/24 04:29:28;;;;;;;;;;;;;;;4.49;100.00;100344.09;3056762;19;19939;-50
2022/09/24 04:30:30;;;;;;;;;;;;;;;4.51;100.00;100343.09;3055799;19;19956;-51
2022/09/24 04:31:35;;;;;;;;;;;;;;;4.54;100.00;100342.13;3055908;19;20342;-51
2022/09/24 04:32:37;;;;;;;;;;;;;;;4.56;100.00;100345.59;3056662;19;19923;-51
2022/09/24 04:33:42;;;;;;;;;;;;;;;4.57;100.00;100340.25;3055693;19;19947;-50
2022/09/24 04:34:44;;;;;;;;;;;;;;;4.60;100.00;100347.16;3056634;19;19931;-51
2022/09/24 04:35:48;;;;;;;;;;;;;;;4.61;100.00;100344.47;3056509;19;19919;-51
2022/09/24 04:36:50;;;;;;;;;;;;;;;4.65;100.00;100345.22;3056699;19;20390;-52
2022/09/24 04:37:55;;;;;;;;;;;;;;;4.68;100.00;100343.31;3056395;19;20357;-52
2022/09/24 04:38:57;;;;;;;;;;;;;;;4.70;100.00;100349.41;3056803;19;19922;-52
2022/09/24 04:40:01;;;;;;;;;;;;;;;4.75;100.00;100345.69;3056587;19;20062;-52
2022/09/24 04:41:09;;;;;;;;;;;;;;;4.78;100.00;100345.59;3056479;19;19923;-53
2022/09/24 04:42:15;;;;;;;;;;;;;;;4.81;100.00;100345.47;3056540;19;19919;-52
2022/09/24 04:43:19;;;;;;;;;;;;;;;4.85;100.00;100341.75;3056638;19;20022;-52
2022/09/24 04:44:22;;;;;;;;;;;;;;;4.87;100.00;100342.56;3056251;19;20251;-53
2022/09/24 04:45:26;;;;;;;;;;;;;;;4.92;100.00;100343.25;3056904;19;19931;-52
2022/09/24 04:46:28;;;;;;;;;;;;;;;4.95;100.00;100354.53;3056389;19;19914;-52
2022/09/24 04:47:33;;;;;;;;;;;;;;;4.99;100.00;100344.72;3056480;19;20282;-51
2022/09/24 04:48:37;;;;;;;;;;;;;;;5.04;100.00;100345.38;3056000;19;19950;-51
2022/09/24 04:49:44;;;;;;;;;;;;;;;5.06;100.00;100341.78;3056494;19;19935;-51
2022/09/24 04:50:46;;;;;;;;;;;;;;;5.10;100.00;100342.47;3055598;19;19941;-52
2022/09/24 04:51:50;;;;;;;;;;;;;;;5.15;100.00;100345.81;3056035;19;19914;-52
2022/09/24 04:52:53;;;;;;;;;;;;;;;5.19;100.00;100347.41;3056181;19;19978;-51
2022/09/24 04:53:58;;;;;;;;;;;;;;;5.22;100.00;100343.75;3055953;19;19922;-51
2022/09/24 04:55:00;;;;;;;;;;;;;;;5.25;100.00;100347.13;3056264;19;20288;-52
2022/09/24 04:56:10;;;;;;;;;;;;;;;5.28;100.00;100344.38;3056268;19;19918;-52
2022/09/24 04:57:13;;;;;;;;;;;;;;;5.32;100.00;100353.88;3056148;19;19982;-51
2022/09/24 04:58:18;;;;;;;;;;;;;;;5.35;100.00;100353.75;3056497;19;19918;-53
2022/09/24 04:59:21;;;;;;;;;;;;;;;5.38;100.00;100353.63;3056304;19;19919;-50
2022/09/24 05:00:26;;;;;;;;;;;;;;;5.40;100.00;100357.09;3056629;19;19923;-51
2022/09/24 05:01:28;;;;;;;;;;;;;;;5.45;100.00;100354.22;3056260;19;19928;-52
2022/09/24 05:02:33;;;;;;;;;;;;;;;5.49;100.00;100352.31;3056242;19;19926;-53
2022/09/24 05:03:35;;;;;;;;;;;;;;;5.54;100.00;100351.22;3056322;19;19934;-52
2022/09/24 05:04:39;;;;;;;;;;;;;;;5.57;100.00;100352.84;3056211;19;19930;-52
2022/09/24 05:05:41;;;;;;;;;;;;;;;5.60;100.00;100356.22;3056133;19;19918;-52
2022/09/24 05:06:46;;;;;;;;;;;;;;;5.64;100.00;100354.31;3056290;19;20031;-53
2022/09/24 05:07:50;;;;;;;;;;;;;;;5.66;100.00;100347.16;3056022;19;19926;-51
2022/09/24 05:08:54;;;;;;;;;;;;;;;5.70;100.00;100343.44;3056242;19;19918;-52
2022/09/24 05:09:56;;;;;;;;;;;;;;;5.72;100.00;100347.75;3055986;19;19942;-51
2022/09/24 05:11:01;;;;;;;;;;;;;;;5.75;100.00;100346.75;3057192;19;19971;-51
2022/09/24 05:12:03;;;;;;;;;;;;;;;5.80;100.00;100339.44;3055996;19;19923;-50
2022/09/24 05:13:08;;;;;;;;;;;;;;;5.84;100.00;100345.47;3055934;19;19974;-51
2022/09/24 05:14:09;;;;;;;;;;;;;;;5.87;100.00;100346.22;3052214;19;20372;-51
2022/09/24 05:15:14;;;;;;;;;;;;;;;5.90;100.00;100351.41;3055899;19;19930;-51
2022/09/24 05:16:18;;;;;;;;;;;;;;;5.94;100.00;100329.13;3055275;19;20242;-52
2022/09/24 05:17:20;;;;;;;;;;;;;;;6.01;100.00;100338.53;3055788;19;19922;-52
2022/09/24 05:18:25;;;;;;;;;;;;;;;6.07;100.00;100346.19;3055396;19;20295;-52
2022/09/24 05:19:27;;;;;;;;;;;;;;;6.13;100.00;100343.28;3056460;19;19928;-52
2022/09/24 05:20:32;;;;;;;;;;;;;;;6.19;100.00;100336.81;3055541;19;19989;-52
2022/09/24 05:21:34;;;;;;;;;;;;;;;6.27;100.00;100339.16;3056106;19;20275;-53
2022/09/24 05:22:45;;;;;;;;;;;;;;;6.33;100.00;100338.84;3055876;19;19943;-52
2022/09/24 05:23:46;;;;;;;;;;;;;;;6.34;100.00;100324.66;3055739;19;20285;-51
2022/09/24 05:24:51;;;;;;;;;;;;;;;6.47;100.00;100331.13;3055906;19;19919;-51
2022/09/24 05:27:10;;;;;;;;;;;;;;;6.63;100.00;100334.75;3057514;19;19915;-53
2022/09/24 05:28:14;;;;;;;;;;;;;;;6.70;100.00;100341.47;3055683;19;19922;-53
2022/09/24 05:29:16;;;;;;;;;;;;;;;6.78;100.00;100336.66;3056023;19;19918;-50
2022/09/24 05:30:21;;;;;;;;;;;;;;;6.84;100.00;100331.06;3055726;19;19922;-52
2022/09/24 05:31:23;;;;;;;;;;;;;;;6.90;100.00;100331.69;3055809;19;21116;-53
2022/09/24 05:32:28;;;;;;;;;;;;;;;6.99;100.00;100329.47;3055243;19;19927;-52
2022/09/24 05:33:30;;;;;;;;;;;;;;;7.08;100.00;100328.13;3054471;19;19923;-53
2022/09/24 05:34:34;;;;;;;;;;;;;;;7.16;100.00;100326.81;3050660;19;20025;-51
2022/09/24 05:35:36;;;;;;;;;;;;;;;7.24;100.00;100329.09;3055332;19;19951;-52
2022/09/24 05:36:42;;;;;;;;;;;;;;;7.29;100.00;100321.75;3053145;19;19915;-52
2022/09/24 05:37:48;;;;;;;;;;;;;;;7.41;100.00;100337.06;3054275;19;19930;-52